Time;durP1;ratioP1;P1;durP2;ratioP2;P2;SDS_P1;SDS_P2;PMS_P1;PMS_P2;Temp;Humidity;BMP_temperature;BMP_pressure;BME280_temperature;BME280_humidity;BME280_pressure;Samples;Min_cycle;Max_cycle;Signal;HPM_P1;HPM_P2
2021/07/09 00:02:32;;;;;;;;;;;;;;;-148.56;100.00;61375.16;5020739;28;20497;-34
2021/07/09 00:04:58;;;;;;;2.83;1.25;;;;;;;-148.56;100.00;61375.16;5022970;28;19928;-36
2021/07/09 00:08:22;;;;;;;3.55;1.20;;;;;;;-148.56;100.00;61375.16;5019091;28;20140;-35
2021/07/09 00:11:47;;;;;;;2.35;1.00;;;;;;;-148.56;100.00;61375.16;5019994;28;20584;-36
2021/07/09 00:15:11;;;;;;;2.85;1.17;;;;;;;-148.56;100.00;61375.16;5028595;28;20125;-35
2021/07/09 00:18:35;;;;;;;2.53;1.00;;;;;;;-148.56;100.00;61375.16;5013989;28;20041;-34
2021/07/09 00:22:00;;;;;;;8.65;1.05;;;;;;;-148.56;100.00;61375.16;5028364;28;20041;-33
2021/07/09 00:24:54;;;;;;;1.60;0.90;;;;;;;-148.56;100.00;61375.16;5021787;28;20047;-35
2021/07/09 00:27:19;;;;;;;3.80;0.93;;;;;;;-148.56;100.00;61375.16;5018290;28;20028;-36
2021/07/09 00:29:45;;;;;;;1.55;1.00;;;;;;;-148.56;100.00;61375.16;5023166;28;20500;-33
2021/07/09 00:32:10;;;;;;;2.70;1.05;;;;;;;-148.56;100.00;61375.16;5021005;28;20041;-35
2021/07/09 00:34:35;;;;;;;17.45;1.27;;;;;;;-148.56;100.00;61375.16;5019721;28;20025;-33
2021/07/09 00:37:01;;;;;;;2.60;1.00;;;;;;;-148.56;100.00;61375.16;5012437;28;20858;-32
2021/07/09 00:39:26;;;;;;;3.95;1.10;;;;;;;-148.56;100.00;61375.16;5004157;28;20501;-35
2021/07/09 00:41:52;;;;;;;4.63;1.00;;;;;;;-148.56;100.00;61375.16;5019678;28;20036;-34
2021/07/09 00:44:17;;;;;;;4.47;1.02;;;;;;;-148.56;100.00;61375.16;5022850;28;20449;-33
2021/07/09 00:46:43;;;;;;;4.45;1.30;;;;;;;-148.56;100.00;61375.16;5011402;28;20029;-34
2021/07/09 00:49:11;;;;;;;2.72;0.95;;;;;;;-148.56;100.00;61375.16;5022955;28;20040;-36
2021/07/09 00:51:37;;;;;;;2.03;0.82;;;;;;;-148.56;100.00;61375.16;5039484;28;20028;-34
2021/07/09 00:54:03;;;;;;;3.58;1.20;;;;;;;-148.56;100.00;61375.16;5024145;28;20889;-35
2021/07/09 00:56:28;;;;;;;12.25;1.27;;;;;;;-148.56;100.00;61375.16;5017996;28;20495;-36
2021/07/09 00:58:54;;;;;;;5.72;1.55;;;;;;;28.26;38.85;96910.38;5014438;28;20022;-35
2021/07/09 01:02:18;;;;;;;2.45;1.17;;;;;;;-148.56;100.00;61375.16;5012458;28;20029;-34
2021/07/09 01:05:42;;;;;;;3.10;0.80;;;;;;;-148.56;100.00;61375.16;5027225;28;20530;-33
2021/07/09 01:08:58;;;;;;;3.03;1.05;;;;;;;;;;5023987;28;20043;-35
2021/07/09 01:12:22;;;;;;;4.32;1.20;;;;;;;-148.56;100.00;61375.16;5013737;28;20039;-33
2021/07/09 01:15:45;;;;;;;4.05;1.00;;;;;;;-148.56;100.00;61375.16;5012593;28;20114;-34
2021/07/09 01:19:09;;;;;;;4.53;1.25;;;;;;;-148.56;100.00;61375.16;5017000;28;20052;-38
2021/07/09 01:22:33;;;;;;;2.78;0.82;;;;;;;-148.56;100.00;61375.16;5020211;28;20029;-35
2021/07/09 01:25:57;;;;;;;5.32;1.00;;;;;;;-148.56;100.00;61375.16;5017306;28;20416;-35
2021/07/09 01:29:21;;;;;;;3.13;1.15;;;;;;;-148.56;100.00;61375.16;5023264;28;20039;-36
2021/07/09 01:32:45;;;;;;;5.05;1.25;;;;;;;-148.56;100.00;61375.16;5011165;28;20029;-36
2021/07/09 01:36:09;;;;;;;2.78;1.42;;;;;;;-148.56;100.00;61375.16;5020862;28;20028;-35
2021/07/09 01:39:33;;;;;;;1.80;0.75;;;;;;;-148.56;100.00;61375.16;5019226;28;20111;-35
2021/07/09 01:42:57;;;;;;;2.70;0.90;;;;;;;-148.56;100.00;61375.16;5018387;28;20033;-37
2021/07/09 01:46:21;;;;;;;1.65;0.88;;;;;;;-148.56;100.00;61375.16;5022757;28;20576;-35
2021/07/09 01:49:51;;;;;;;2.53;0.88;;;;;;;-148.56;100.00;61375.16;5022188;28;20060;-33
2021/07/09 01:53:15;;;;;;;3.20;1.05;;;;;;;-148.56;100.00;61375.16;5013191;28;20030;-36
2021/07/09 01:56:39;;;;;;;0.95;0.70;;;;;;;-148.56;100.00;61375.16;5008139;28;20855;-35
2021/07/09 02:00:05;;;;;;;2.00;1.10;;;;;;;-148.56;100.00;61375.16;5022408;28;20037;-35
2021/07/09 02:03:29;;;;;;;1.50;0.80;;;;;;;-148.56;100.00;61375.16;5014445;28;20040;-35
2021/07/09 02:06:53;;;;;;;1.27;0.85;;;;;;;-148.56;100.00;61375.16;5021725;28;20029;-34
2021/07/09 02:09:20;;;;;;;3.63;0.80;;;;;;;-148.56;100.00;61375.16;5022437;28;20033;-34
2021/07/09 02:11:54;;;;;;;4.95;1.10;;;;;;;-148.56;100.00;61375.16;5033471;28;20068;-36
2021/07/09 02:14:20;;;;;;;1.45;0.65;;;;;;;28.17;38.65;96921.47;5018244;28;20456;-35
2021/07/09 02:16:45;;;;;;;2.78;1.10;;;;;;;28.16;38.57;96910.09;5008202;28;20021;-35
2021/07/09 02:19:10;;;;;;;1.15;0.70;;;;;;;28.16;38.59;96914.50;5007656;28;20048;-33
2021/07/09 02:22:35;;;;;;;1.92;0.80;;;;;;;-148.56;100.00;61375.16;5011697;28;20044;-36
2021/07/09 02:25:59;;;;;;;2.35;0.90;;;;;;;-148.56;100.00;61375.16;5002140;28;20151;-34
2021/07/09 02:28:31;;;;;;;1.73;0.77;;;;;;;28.16;38.59;96914.50;5018157;28;20405;-34
2021/07/09 02:31:55;;;;;;;2.97;0.80;;;;;;;-148.56;100.00;61375.16;5025764;28;20045;-38
2021/07/09 02:35:20;;;;;;;1.65;1.10;;;;;;;-148.56;100.00;61375.16;5024818;28;20074;-34
2021/07/09 02:38:44;;;;;;;4.93;1.00;;;;;;;-148.56;100.00;61375.16;5012800;28;20502;-33
2021/07/09 02:42:08;;;;;;;1.83;0.98;;;;;;;-148.56;100.00;61375.16;5006967;28;20033;-37
2021/07/09 02:45:32;;;;;;;0.77;0.70;;;;;;;-148.56;100.00;61375.16;5024363;28;20033;-33
2021/07/09 02:48:06;;;;;;;0.98;0.75;;;;;;;-148.56;38.59;96914.50;5019986;28;20064;-36
2021/07/09 02:51:30;;;;;;;1.92;0.90;;;;;;;-148.56;100.00;61375.16;5023296;28;20144;-34
2021/07/09 02:54:49;;;;;;;2.25;0.93;;;;;;;-148.56;100.00;61375.16;5024832;28;20029;-34
2021/07/09 02:58:13;;;;;;;1.83;0.93;;;;;;;-148.56;100.00;61375.16;5018686;28;20523;-36
2021/07/09 03:00:39;;;;;;;2.42;0.90;;;;;;;28.22;38.51;96894.84;5017824;28;20066;-34
2021/07/09 03:03:04;;;;;;;1.25;0.80;;;;;;;28.21;38.54;96893.13;5030617;28;20038;-37
2021/07/09 03:05:29;;;;;;;2.60;0.85;;;;;;;28.19;38.48;96901.16;5026418;28;20036;-32
2021/07/09 03:07:55;;;;;;;1.75;0.80;;;;;;;28.18;38.35;96897.66;5026683;28;20025;-34
2021/07/09 03:10:20;;;;;;;2.13;0.80;;;;;;;28.17;38.44;96890.72;5022616;28;20090;-36
2021/07/09 03:12:46;;;;;;;6.95;1.20;;;;;;;28.17;38.43;96901.25;5021488;28;20029;-34
2021/07/09 03:15:13;;;;;;;1.08;0.80;;;;;;;28.18;38.33;96899.44;5024124;28;20029;-37
2021/07/09 03:17:39;;;;;;;3.15;1.00;;;;;;;28.17;38.55;96901.25;5021479;28;20560;-35
2021/07/09 03:20:06;;;;;;;0.82;0.77;;;;;;;28.18;38.48;96900.28;5036851;28;20025;-33
2021/07/09 03:22:31;;;;;;;1.13;0.77;;;;;;;28.17;38.41;96911.78;5040700;28;20032;-37
2021/07/09 03:24:56;;;;;;;2.75;0.80;;;;;;;28.18;38.50;96917.88;5024430;28;20037;-41
2021/07/09 03:27:22;;;;;;;4.20;1.02;;;;;;;28.18;38.24;96917.88;5021141;28;20055;-38
2021/07/09 03:29:47;;;;;;;5.03;1.00;;;;;;;28.18;38.43;96918.75;5017872;28;20036;-35
2021/07/09 03:32:13;;;;;;;1.25;1.00;;;;;;;28.17;38.39;96919.69;5025659;28;20036;-36
2021/07/09 03:34:38;;;;;;;1.75;0.80;;;;;;;28.17;38.37;96917.06;5004578;28;20044;-33
2021/07/09 03:37:04;;;;;;;2.20;1.23;;;;;;;28.18;38.33;96917.88;5023407;28;20021;-36
2021/07/09 03:40:21;;;;;;;1.33;0.73;;;;;;;-148.56;100.00;61375.16;5011863;28;20021;-33
2021/07/09 03:43:45;;;;;;;2.30;0.80;;;;;;;-148.56;100.00;61375.16;5017760;28;20749;-35
2021/07/09 03:47:09;;;;;;;1.48;1.05;;;;;;;-148.56;100.00;61375.16;5020511;28;20576;-33
2021/07/09 03:50:33;;;;;;;2.10;1.00;;;;;;;-148.56;100.00;61375.16;5024561;28;20037;-35
2021/07/09 03:53:57;;;;;;;1.67;1.10;;;;;;;-148.56;100.00;61375.16;5029702;28;20250;-37
2021/07/09 03:57:21;;;;;;;2.88;1.23;;;;;;;-148.56;100.00;61375.16;5025770;28;20109;-37
2021/07/09 04:00:45;;;;;;;3.47;0.95;;;;;;;-148.56;100.00;61375.16;5003665;28;20025;-35
2021/07/09 04:04:09;;;;;;;1.95;1.00;;;;;;;-148.56;100.00;61375.16;5021973;28;20511;-35
2021/07/09 04:07:33;;;;;;;5.15;1.40;;;;;;;-148.56;100.00;61375.16;5034802;28;20125;-32
2021/07/09 04:10:57;;;;;;;2.42;1.02;;;;;;;-148.56;100.00;61375.16;5023677;28;20556;-33
2021/07/09 04:14:20;;;;;;;1.80;1.10;;;;;;;-148.56;100.00;61375.16;5038201;28;20036;-35
2021/07/09 04:17:44;;;;;;;2.65;0.93;;;;;;;-148.56;100.00;61375.16;5022816;28;20363;-34
2021/07/09 04:21:08;;;;;;;2.33;0.98;;;;;;;-148.56;100.00;61375.16;4997611;28;20017;-37
2021/07/09 04:24:32;;;;;;;2.90;0.93;;;;;;;-148.56;100.00;61375.16;5026084;28;20033;-33
2021/07/09 04:27:56;;;;;;;1.38;1.10;;;;;;;-148.56;100.00;61375.16;5020842;28;20535;-37
2021/07/09 04:31:20;;;;;;;3.90;1.10;;;;;;;-148.56;100.00;61375.16;5020522;28;20037;-33
2021/07/09 04:34:44;;;;;;;13.57;2.15;;;;;;;-148.56;100.00;61375.16;5018235;28;20035;-32
2021/07/09 04:38:07;;;;;;;5.63;1.00;;;;;;;-148.56;100.00;61375.16;5022799;28;20564;-37
2021/07/09 04:41:22;;;;;;;2.60;0.80;;;;;;;-148.56;100.00;61375.16;5010991;28;20098;-35
2021/07/09 04:44:46;;;;;;;7.70;1.10;;;;;;;-148.56;100.00;61375.16;5024475;28;20033;-39
2021/07/09 04:48:10;;;;;;;6.65;1.20;;;;;;;-148.56;100.00;61375.16;5014410;28;20111;-34
2021/07/09 04:51:34;;;;;;;3.00;1.10;;;;;;;-148.56;100.00;61375.16;5021129;28;20040;-37
2021/07/09 04:54:58;;;;;;;5.43;1.67;;;;;;;-148.56;100.00;61375.16;5015977;28;20017;-36
2021/07/09 04:58:21;;;;;;;3.78;1.10;;;;;;;-148.56;100.00;61375.16;5012286;28;21078;-34
2021/07/09 05:01:45;;;;;;;2.03;1.00;;;;;;;-148.56;100.00;61375.16;5019408;28;20096;-37
2021/07/09 05:05:10;;;;;;;1.63;1.20;;;;;;;-148.56;100.00;61375.16;5025415;28;21088;-37
2021/07/09 05:08:34;;;;;;;3.97;1.23;;;;;;;-148.56;100.00;61375.16;5013872;28;20526;-34
2021/07/09 05:11:58;;;;;;;2.33;1.10;;;;;;;-148.56;100.00;61375.16;5016641;28;20045;-35
2021/07/09 05:15:22;;;;;;;2.80;1.05;;;;;;;-148.56;100.00;61375.16;5006001;28;20033;-34
2021/07/09 05:18:45;;;;;;;2.55;1.00;;;;;;;-148.56;100.00;61375.16;5023718;28;20140;-37
2021/07/09 05:22:10;;;;;;;1.08;0.90;;;;;;;-148.56;100.00;61375.16;5026288;28;20218;-35
2021/07/09 05:24:56;;;;;;;3.08;1.20;;;;;;;-148.56;100.00;61375.16;5017885;28;20037;-34
2021/07/09 05:28:23;;;;;;;2.75;1.20;;;;;;;-148.56;100.00;61375.16;5016030;28;20698;-36
2021/07/09 05:31:47;;;;;;;4.43;1.10;;;;;;;-148.56;100.00;61375.16;5015633;28;20033;-35
2021/07/09 05:35:11;;;;;;;3.65;1.25;;;;;;;-148.56;100.00;61375.16;5013569;28;20039;-33
2021/07/09 05:38:35;;;;;;;1.45;0.90;;;;;;;-148.56;100.00;61375.16;5021821;28;20022;-32
2021/07/09 05:42:00;;;;;;;2.83;1.10;;;;;;;-148.56;100.00;61375.16;5035153;28;20071;-36
2021/07/09 05:45:24;;;;;;;5.85;1.40;;;;;;;-148.56;100.00;61375.16;5017256;28;20670;-36
2021/07/09 05:48:48;;;;;;;13.30;1.20;;;;;;;-148.56;100.00;61375.16;5014880;28;20025;-32
2021/07/09 05:52:08;;;;;;;3.22;1.50;;;;;;;-148.56;100.00;61375.16;5009976;28;20064;-35
2021/07/09 05:55:31;;;;;;;2.58;0.93;;;;;;;-148.56;100.00;61375.16;5003880;28;20259;-36
2021/07/09 05:58:55;;;;;;;4.07;0.93;;;;;;;-148.56;100.00;61375.16;5003992;28;20393;-32
2021/07/09 06:02:18;;;;;;;3.92;1.33;;;;;;;-148.56;100.00;61375.16;5017161;28;20033;-33
2021/07/09 06:05:02;;;;;;;4.78;1.10;;;;;;;28.18;38.33;96917.88;5013017;28;20029;-37
2021/07/09 06:07:28;;;;;;;3.38;1.00;;;;;;;28.12;37.65;97035.06;5008381;28;20021;-34
2021/07/09 06:09:53;;;;;;;2.30;0.98;;;;;;;28.11;37.76;97043.03;5024489;28;20992;-36
2021/07/09 06:12:18;;;;;;;3.78;0.90;;;;;;;28.10;37.78;97039.53;5021347;28;20041;-35
2021/07/09 06:14:44;;;;;;;1.90;1.05;;;;;;;28.09;37.98;97045.75;5013912;28;20032;-36
2021/07/09 06:17:09;;;;;;;4.43;1.20;;;;;;;28.09;37.83;97051.03;5018715;28;20304;-35
2021/07/09 06:19:35;;;;;;;2.15;1.05;;;;;;;28.09;37.93;97045.75;5027757;28;20029;-36
2021/07/09 06:22:00;;;;;;;2.65;1.00;;;;;;;28.09;38.04;97045.75;5017048;28;20026;-36
2021/07/09 06:24:25;;;;;;;0.93;0.80;;;;;;;28.09;37.96;97043.13;5013768;28;20025;-35
2021/07/09 06:26:51;;;;;;;3.97;1.23;;;;;;;28.09;37.89;97040.50;5019949;28;20676;-35
2021/07/09 06:29:16;;;;;;;2.20;1.00;;;;;;;28.10;37.99;97047.44;5023851;28;20025;-35
2021/07/09 06:31:42;;;;;;;6.43;1.17;;;;;;;28.10;38.07;97046.63;5018764;28;20045;-34
2021/07/09 06:34:07;;;;;;;2.67;1.15;;;;;;;28.10;37.96;97043.97;5023578;28;20033;-38
2021/07/09 06:36:32;;;;;;;15.60;1.30;;;;;;;28.10;38.18;97049.25;5004326;28;20104;-32
2021/07/09 06:38:59;;;;;;;11.70;2.22;;;;;;;28.09;37.76;97051.03;5017689;28;20028;-36
2021/07/09 06:41:24;;;;;;;6.22;1.85;;;;;;;28.08;37.61;97061.66;5024027;28;20072;-34
2021/07/09 06:43:49;;;;;;;8.07;2.00;;;;;;;28.06;37.81;97059.09;5025116;28;20452;-36
2021/07/09 06:46:15;;;;;;;9.77;2.20;;;;;;;28.03;37.68;97056.63;5027822;28;20029;-38
2021/07/09 06:48:41;;;;;;;7.85;2.20;;;;;;;28.00;37.57;97062.09;5030461;28;20575;-38
2021/07/09 06:51:08;;;;;;;8.00;1.88;;;;;;;27.97;37.68;97062.28;5024231;28;20447;-34
2021/07/09 06:53:34;;;;;;;5.28;2.13;;;;;;;27.94;37.68;97063.31;5014216;28;20040;-33
2021/07/09 06:55:59;;;;;;;4.60;2.30;;;;;;;27.91;37.91;97064.34;5022990;28;20401;-35
2021/07/09 06:58:25;;;;;;;7.80;2.33;;;;;;;27.89;37.84;97068.00;5017649;28;20033;-35
2021/07/09 07:00:50;;;;;;;7.80;2.30;;;;;;;27.87;37.82;97060.19;5016391;28;20028;-32
2021/07/09 07:03:15;;;;;;;3.97;2.00;;;;;;;27.85;37.72;97066.47;5020302;28;20033;-32
2021/07/09 07:05:41;;;;;;;4.18;2.00;;;;;;;27.83;37.64;97065.69;5021683;28;20032;-34
2021/07/09 07:08:19;;;;;;;3.83;1.73;;;;;;;27.79;37.72;97062.41;5019764;28;20032;-34
2021/07/09 07:10:45;;;;;;;4.32;2.08;;;;;;;27.77;37.83;97059.03;5022920;28;20025;-37
2021/07/09 07:13:10;;;;;;;4.22;1.80;;;;;;;27.76;37.99;97067.81;5023351;28;20040;-32
2021/07/09 07:15:36;;;;;;;4.15;2.05;;;;;;;27.74;37.86;97061.81;5020564;28;20040;-35
2021/07/09 07:18:02;;;;;;;7.00;1.98;;;;;;;27.72;37.82;97063.69;5020338;28;20037;-35
2021/07/09 07:20:29;;;;;;;2.75;1.75;;;;;;;27.70;37.89;97065.56;5020671;28;20025;-33
2021/07/09 07:22:54;;;;;;;4.28;1.88;;;;;;;27.67;37.85;97071.00;5020005;28;20033;-34
2021/07/09 07:25:19;;;;;;;8.00;2.28;;;;;;;27.67;38.07;97073.63;5021772;28;20067;-36
2021/07/09 07:27:45;;;;;;;6.28;1.98;;;;;;;27.64;37.97;97075.50;5018274;28;20106;-36
2021/07/09 07:30:11;;;;;;;2.53;2.05;;;;;;;27.64;37.98;97075.50;5019410;28;20021;-36
2021/07/09 07:32:37;;;;;;;4.20;1.92;;;;;;;27.62;38.24;97077.34;5017404;28;20123;-34
2021/07/09 07:35:03;;;;;;;4.07;2.00;;;;;;;27.62;38.16;97080.00;5020412;28;20174;-33
2021/07/09 07:37:28;;;;;;;3.75;1.85;;;;;;;27.60;38.03;97073.94;5020936;28;20443;-32
2021/07/09 07:39:54;;;;;;;4.10;1.98;;;;;;;27.59;38.07;97074.88;5020006;28;20027;-36
2021/07/09 07:42:20;;;;;;;4.35;1.92;;;;;;;27.59;38.06;97080.16;5018937;28;20033;-34
2021/07/09 07:44:45;;;;;;;3.90;1.75;;;;;;;27.57;38.12;97079.38;5020644;28;20544;-34
2021/07/09 07:47:10;;;;;;;2.63;1.88;;;;;;;27.56;38.35;97075.06;5019613;28;20040;-33
2021/07/09 07:49:36;;;;;;;3.08;1.85;;;;;;;27.56;38.32;97075.06;5020301;28;20025;-33
2021/07/09 07:52:01;;;;;;;3.42;2.03;;;;;;;27.56;38.18;97080.31;5019401;28;20028;-36
2021/07/09 07:54:29;;;;;;;2.50;1.83;;;;;;;27.56;38.42;97075.06;5034179;28;20035;-36
2021/07/09 07:56:54;;;;;;;3.65;1.88;;;;;;;27.55;38.22;97081.25;5017461;28;20119;-33
2021/07/09 07:59:20;;;;;;;3.67;1.77;;;;;;;27.55;38.23;97078.63;5021071;28;20037;-37
2021/07/09 08:01:46;;;;;;;3.85;1.83;;;;;;;27.55;38.24;97078.63;5013146;28;20080;-34
2021/07/09 08:04:11;;;;;;;2.45;1.60;;;;;;;27.55;38.12;97077.75;5023348;28;20032;-32
2021/07/09 08:06:37;;;;;;;5.45;1.77;;;;;;;27.55;38.14;97083.03;5020451;28;20128;-34
2021/07/09 08:09:02;;;;;;;5.10;2.10;;;;;;;27.50;37.77;97075.41;5021695;28;20075;-34
2021/07/09 08:11:28;;;;;;;4.10;2.25;;;;;;;27.44;37.74;97073.09;5041648;28;20037;-35
2021/07/09 08:13:53;;;;;;;9.95;2.90;;;;;;;27.36;37.61;97069.13;5020342;28;20032;-34
2021/07/09 08:16:19;;;;;;;3.75;2.33;;;;;;;27.25;37.56;97071.50;5014449;28;20029;-36
2021/07/09 08:18:44;;;;;;;5.55;2.50;;;;;;;27.15;37.83;97072.94;5019536;28;20033;-39
2021/07/09 08:21:09;;;;;;;5.65;2.50;;;;;;;27.06;37.80;97077.75;5019888;28;20032;-32
2021/07/09 08:23:35;;;;;;;4.45;2.22;;;;;;;26.97;38.00;97073.00;5019966;28;20033;-37
2021/07/09 08:26:00;;;;;;;4.00;2.28;;;;;;;26.90;38.21;97069.81;5016152;28;20032;-34
2021/07/09 08:28:26;;;;;;;10.02;2.78;;;;;;;26.84;38.30;97072.75;5017339;28;20025;-35
2021/07/09 08:30:54;;;;;;;4.72;2.28;;;;;;;26.76;38.55;97075.78;5014686;28;20048;-33
2021/07/09 08:33:19;;;;;;;3.65;2.50;;;;;;;26.71;38.88;97069.94;5015920;28;20021;-38
2021/07/09 08:35:44;;;;;;;3.50;2.17;;;;;;;26.67;38.93;97065.75;5016689;28;20143;-31
2021/07/09 08:38:10;;;;;;;6.15;2.20;;;;;;;26.61;39.14;97073.03;5015174;28;20140;-32
2021/07/09 08:40:36;;;;;;;3.53;2.10;;;;;;;26.55;38.67;97068.09;5019290;28;20107;-36
2021/07/09 08:43:02;;;;;;;4.50;2.30;;;;;;;26.48;38.62;97069.34;5015406;28;20029;-34
2021/07/09 08:45:28;;;;;;;5.18;2.35;;;;;;;26.41;38.74;97070.59;5026133;28;21082;-37
2021/07/09 08:47:53;;;;;;;4.15;2.17;;;;;;;26.34;38.61;97076.16;5026549;28;20032;-36
2021/07/09 08:50:19;;;;;;;4.22;2.17;;;;;;;26.25;38.25;97076.59;5008868;28;20217;-34
2021/07/09 08:52:44;;;;;;;5.93;2.33;;;;;;;26.18;38.13;97075.22;5018647;28;20025;-35
2021/07/09 08:55:12;;;;;;;5.20;2.70;;;;;;;26.13;38.39;97079.84;5023006;28;20025;-36
2021/07/09 08:57:41;;;;;;;4.82;2.20;;;;;;;26.06;38.62;97074.06;5019914;28;20041;-35
2021/07/09 09:00:32;;;;;;;6.20;2.30;;;;;;;26.00;38.57;97083.06;5021336;28;20108;-31
2021/07/09 09:02:58;;;;;;;3.63;2.47;;;;;;;25.98;38.59;97081.44;5014617;28;20049;-36
2021/07/09 09:05:25;;;;;;;5.47;2.60;;;;;;;25.99;38.60;97089.25;5027253;28;20041;-34
2021/07/09 09:08:00;;;;;;;6.28;2.30;;;;;;;26.03;38.58;97088.19;5024044;28;20611;-33
2021/07/09 09:10:44;;;;;;;16.00;2.40;;;;;;;26.07;38.75;97089.75;5026830;28;20029;-36
2021/07/09 09:13:10;;;;;;;6.20;2.00;;;;;;;26.14;38.77;97094.66;5027030;28;20056;-33
2021/07/09 09:15:36;;;;;;;28.83;2.65;;;;;;;26.21;38.73;97090.81;5024678;28;20045;-32
2021/07/09 09:18:21;;;;;;;12.52;2.33;;;;;;;26.27;38.58;97101.03;5017595;28;21085;-34
2021/07/09 09:21:01;;;;;;;9.85;2.30;;;;;;;26.34;38.62;97107.69;5021398;28;21130;-38
2021/07/09 09:23:27;;;;;;;4.43;2.20;;;;;;;26.42;38.30;97103.81;5024001;28;20064;-34
2021/07/09 09:25:53;;;;;;;6.45;2.92;;;;;;;26.46;37.72;97105.34;5022604;28;20033;-36
2021/07/09 09:28:18;;;;;;;7.30;3.05;;;;;;;26.46;37.45;97103.59;5019545;28;20621;-36
2021/07/09 09:30:45;;;;;;;6.55;3.05;;;;;;;26.45;37.00;97099.28;5017341;28;20041;-34
2021/07/09 09:33:12;;;;;;;32.45;3.97;;;;;;;26.43;37.15;97110.78;5018629;28;20029;-38
2021/07/09 09:35:43;;;;;;;6.80;3.08;;;;;;;26.38;36.57;97107.56;5021073;28;20060;-35
2021/07/09 09:38:13;;;;;;;4.30;2.92;;;;;;;26.28;36.64;97097.47;5016425;28;20034;-39
2021/07/09 09:40:40;;;;;;;6.13;3.00;;;;;;;26.23;36.85;97099.47;5019116;28;20087;-35
2021/07/09 09:43:08;;;;;;;3.45;2.58;;;;;;;26.19;36.79;97105.78;5019385;28;20068;-39
2021/07/09 09:45:34;;;;;;;5.40;2.72;;;;;;;26.16;37.00;97098.09;5015302;28;20064;-34
2021/07/09 09:48:05;;;;;;;4.75;2.78;;;;;;;26.14;37.06;97100.78;5019527;28;20042;-34
2021/07/09 09:50:30;;;;;;;6.45;2.78;;;;;;;26.14;37.21;97097.28;5021237;28;20064;-35
2021/07/09 09:52:56;;;;;;;9.43;2.65;;;;;;;26.14;37.28;97092.03;5021596;28;20084;-40
2021/07/09 09:55:23;;;;;;;5.18;2.40;;;;;;;26.13;36.73;97092.97;5019298;28;20025;-39
2021/07/09 09:58:07;;;;;;;5.43;2.42;;;;;;;26.10;36.81;97096.59;5043044;28;20029;-36
2021/07/09 10:00:33;;;;;;;4.57;2.58;;;;;;;26.10;36.96;97100.06;5022752;28;20044;-37
2021/07/09 10:02:58;;;;;;;5.95;2.70;;;;;;;26.09;36.91;97098.38;5027120;28;20040;-38
2021/07/09 10:05:24;;;;;;;4.63;2.40;;;;;;;26.08;36.89;97088.81;5022573;28;20032;-36
2021/07/09 10:07:52;;;;;;;4.75;2.72;;;;;;;26.08;36.51;97083.53;5025540;28;20026;-34
2021/07/09 10:10:18;;;;;;;18.63;3.00;;;;;;;26.09;36.58;97082.63;5025178;28;20057;-34
2021/07/09 10:12:43;;;;;;;6.40;2.67;;;;;;;26.10;36.84;97078.22;5020650;28;20176;-35
2021/07/09 10:15:09;;;;;;;5.88;3.00;;;;;;;26.13;36.92;97087.72;5042205;28;20025;-35
2021/07/09 10:18:33;;;;;;;7.80;2.75;;;;;;;-148.56;100.00;61375.16;5006990;28;20033;-35
2021/07/09 10:20:58;;;;;;;9.65;3.00;;;;;;;26.21;36.36;97081.16;5025999;28;20021;-33
2021/07/09 10:23:24;;;;;;;8.85;3.65;;;;;;;26.22;36.30;97082.00;5027753;28;20612;-34
2021/07/09 10:25:50;;;;;;;4.80;3.53;;;;;;;26.24;35.97;97093.31;5012057;28;20037;-33
2021/07/09 10:28:22;;;;;;;5.57;3.22;;;;;;;26.26;35.87;97094.09;5023160;28;20029;-36
2021/07/09 10:30:47;;;;;;;;;;;;;;;26.27;36.29;97095.78;5020423;28;20104;-31
2021/07/09 10:33:35;;;;;;;6.95;3.45;;;;;;;26.25;37.08;97089.75;5021944;28;19955;-37
2021/07/09 10:36:07;;;;;;;10.88;3.92;;;;;;;26.25;37.59;97087.13;5022665;28;20691;-34
2021/07/09 10:38:40;;;;;;;11.20;3.67;;;;;;;26.23;38.01;97089.81;5020476;28;20148;-37
2021/07/09 10:41:12;;;;;;;33.35;6.65;;;;;;;26.23;39.53;97088.94;5020301;28;20606;-33
2021/07/09 10:43:37;;;;;;;23.42;5.15;;;;;;;26.23;39.49;97083.69;5021418;28;20123;-35
2021/07/09 10:46:07;;;;;;;22.05;4.63;;;;;;;26.24;39.80;97080.16;5022180;28;20033;-35
2021/07/09 10:48:37;;;;;;;11.68;4.10;;;;;;;26.25;39.50;97075.75;5020102;28;20035;-34
2021/07/09 10:51:03;;;;;;;9.13;3.78;;;;;;;26.26;39.21;97078.34;5022126;28;20025;-35
2021/07/09 10:53:30;;;;;;;11.38;3.70;;;;;;;26.27;38.60;97077.41;5024756;28;20432;-37
2021/07/09 10:56:01;;;;;;;11.80;3.20;;;;;;;26.31;38.18;97076.31;5020880;28;20025;-36
2021/07/09 10:58:44;;;;;;;5.88;3.00;;;;;;;-148.56;100.00;61375.16;5021863;28;20087;-34
2021/07/09 11:01:12;;;;;;;9.23;3.55;;;;;;;26.41;37.49;97081.09;5023347;28;20037;-32
2021/07/09 11:03:42;;;;;;;7.60;3.47;;;;;;;26.45;37.07;97082.66;5022655;28;20036;-34
2021/07/09 11:06:19;;;;;;;5.45;3.33;;;;;;;26.47;36.21;97081.63;5025078;28;20035;-32
2021/07/09 11:08:57;;;;;;;11.05;3.45;;;;;;;26.51;36.42;97081.47;5021617;28;20025;-38
2021/07/09 11:11:29;;;;;;;10.73;3.17;;;;;;;26.54;36.65;97076.09;5018396;28;20096;-35
2021/07/09 11:13:58;;;;;;;4.90;2.88;;;;;;;26.57;36.79;97082.00;5022061;28;20029;-35
2021/07/09 11:16:26;;;;;;;5.93;3.28;;;;;;;26.59;36.87;97081.94;5020178;28;20028;-39
2021/07/09 11:19:03;;;;;;;6.63;3.03;;;;;;;26.61;36.87;97067.78;5018668;28;20049;-37
2021/07/09 11:21:32;;;;;;;7.90;3.20;;;;;;;26.65;36.86;97072.91;5020927;28;20432;-32
2021/07/09 11:24:04;;;;;;;5.80;3.30;;;;;;;26.67;36.76;97081.53;5020244;28;20025;-35
2021/07/09 11:26:31;;;;;;;4.72;3.00;;;;;;;26.70;36.74;97076.97;5019959;28;20029;-39
2021/07/09 11:28:59;;;;;;;6.43;3.08;;;;;;;26.71;37.00;97072.56;5019061;28;20053;-36
2021/07/09 11:31:35;;;;;;;5.82;3.20;;;;;;;26.74;36.86;97072.41;5020253;28;20277;-37
2021/07/09 11:34:01;;;;;;;6.93;2.88;;;;;;;26.76;36.78;97065.28;5020835;28;20712;-34
2021/07/09 11:36:26;;;;;;;4.32;2.92;;;;;;;26.79;36.87;97070.38;5020642;28;20033;-35
2021/07/09 11:39:08;;;;;;;6.55;2.55;;;;;;;26.81;36.81;97058.00;5023841;28;20048;-36
2021/07/09 11:41:45;;;;;;;;;;;;;;;26.83;36.73;97056.16;5020106;28;20120;-36
2021/07/09 11:44:10;;;;;;;5.05;2.60;;;;;;;26.85;36.79;97059.53;5021510;28;20499;-37
2021/07/09 11:46:35;;;;;;;3.45;2.47;;;;;;;26.86;36.94;97055.97;5015684;28;20039;-35
2021/07/09 11:49:01;;;;;;;5.18;2.60;;;;;;;26.88;36.82;97055.88;5018699;28;20040;-32
2021/07/09 11:51:26;;;;;;;3.53;2.80;;;;;;;26.90;36.93;97061.91;5017455;28;20044;-36
2021/07/09 11:54:07;;;;;;;12.23;2.90;;;;;;;26.91;36.96;97058.34;5019210;28;20025;-37
2021/07/09 11:56:40;;;;;;;6.63;2.53;;;;;;;26.92;36.98;97048.69;5015669;28;20033;-36
2021/07/09 11:59:15;;;;;;;3.33;2.40;;;;;;;26.94;36.98;97052.97;5021262;28;20052;-34
2021/07/09 12:01:41;;;;;;;5.07;2.70;;;;;;;26.95;37.05;97059.91;5017427;28;20033;-36
2021/07/09 12:04:06;;;;;;;6.60;2.90;;;;;;;26.96;36.84;97050.25;5023798;28;20048;-34
2021/07/09 12:06:31;;;;;;;8.18;2.42;;;;;;;26.98;37.02;97044.00;5016392;28;20713;-35
2021/07/09 12:08:57;;;;;;;5.75;2.80;;;;;;;27.00;37.23;97046.50;5037867;28;20396;-36
2021/07/09 12:11:23;;;;;;;2.72;2.30;;;;;;;27.02;37.03;97049.06;5018303;28;20032;-36
2021/07/09 12:14:07;;;;;;;4.28;2.60;;;;;;;27.04;37.10;97042.78;5025458;28;20552;-33
2021/07/09 12:16:32;;;;;;;3.53;2.30;;;;;;;27.05;37.04;97044.50;5016152;28;20064;-37
2021/07/09 12:19:01;;;;;;;4.22;2.20;;;;;;;27.06;37.07;97040.94;5022115;28;20498;-35
2021/07/09 12:21:27;;;;;;;3.88;2.40;;;;;;;27.06;37.16;97035.66;5021107;28;20029;-38
2021/07/09 12:24:05;;;;;;;5.78;2.63;;;;;;;27.08;37.14;97038.22;5021146;28;20090;-35
2021/07/09 12:26:30;;;;;;;3.33;2.03;;;;;;;27.09;37.06;97029.41;5015077;28;20080;-35
2021/07/09 12:28:56;;;;;;;5.18;2.20;;;;;;;27.10;37.08;97025.81;5027813;28;20112;-31
2021/07/09 12:31:21;;;;;;;10.00;2.38;;;;;;;27.10;36.96;97021.41;5019041;28;20090;-36
2021/07/09 12:33:53;;;;;;;6.78;2.20;;;;;;;27.12;37.16;97034.50;5016739;28;20417;-37
2021/07/09 12:36:20;;;;;;;5.55;2.38;;;;;;;27.12;37.14;97027.44;5017521;28;20030;-38
2021/07/09 12:38:56;;;;;;;2.00;1.80;;;;;;;27.13;36.98;97021.25;5018586;28;20029;-34
2021/07/09 12:41:31;;;;;;;2.65;2.10;;;;;;;27.15;37.11;97018.53;5022407;28;20040;-36